Time;durP1;ratioP1;P1;durP2;ratioP2;P2;SDS_P1;SDS_P2;PMS_P1;PMS_P2;Temp;Humidity;BMP_temperature;BMP_pressure;BME280_temperature;BME280_humidity;BME280_pressure;Samples;Min_cycle;Max_cycle;Signal;HPM_P1;HPM_P2
2022/07/13 00:00:39;;;;;;;2.20;1.60;;;18.40;1.00;;;;;;5064916;28;20500;-75
2022/07/13 00:03:09;;;;;;;4.40;1.60;;;18.40;1.00;;;;;;5071925;28;20177;-75
2022/07/13 00:05:34;;;;;;;3.60;1.47;;;18.30;1.00;;;;;;5056940;28;20429;-74
2022/07/13 00:08:03;;;;;;;16.73;1.70;;;18.20;1.00;;;;;;5076532;28;20428;-74
2022/07/13 00:10:29;;;;;;;4.57;1.40;;;18.10;1.00;;;;;;5077282;28;20185;-75
2022/07/13 00:12:55;;;;;;;4.67;1.50;;;18.10;1.00;;;;;;5076074;28;20465;-75
2022/07/13 00:15:21;;;;;;;1.87;1.57;;;18.00;1.00;;;;;;5076771;28;20459;-75
2022/07/13 00:17:47;;;;;;;2.60;1.57;;;18.10;1.00;;;;;;5073129;28;20211;-74
2022/07/13 00:20:15;;;;;;;4.40;1.70;;;18.10;1.00;;;;;;5056523;28;20440;-75
2022/07/13 00:22:40;;;;;;;3.83;1.63;;;18.10;1.00;;;;;;5073667;28;20632;-75
2022/07/13 00:25:32;;;;;;;2.60;1.77;;;18.20;1.00;;;;;;5067915;28;20467;-80
2022/07/13 00:28:03;;;;;;;3.43;1.70;;;18.10;1.00;;;;;;5075996;28;20182;-80
2022/07/13 00:30:39;;;;;;;4.93;1.80;;;18.00;1.00;;;;;;5076496;28;20419;-81
2022/07/13 00:33:05;;;;;;;1.57;1.43;;;18.10;1.00;;;;;;5084388;28;20518;-80
2022/07/13 00:35:39;;;;;;;4.87;1.93;;;18.10;1.00;;;;;;5056300;28;20475;-80
2022/07/13 00:38:56;;;;;;;6.47;1.90;;;18.20;1.00;;;;;;5063694;28;20492;-80
2022/07/13 00:41:27;;;;;;;3.17;1.53;;;18.20;1.00;;;;;;5062526;28;20416;-81
2022/07/13 00:44:12;;;;;;;3.77;1.83;;;18.20;1.00;;;;;;5072617;28;20975;-81
2022/07/13 00:46:44;;;;;;;2.43;1.67;;;18.30;1.00;;;;;;5076091;28;20513;-81
2022/07/13 00:49:15;;;;;;;1.77;1.60;;;18.30;1.00;;;;;;5074638;28;20866;-80
2022/07/13 00:51:57;;;;;;;6.03;1.73;;;18.40;1.00;;;;;;5061048;28;20900;-81
2022/07/13 00:54:28;;;;;;;1.73;1.63;;;18.40;1.00;;;;;;5075256;28;20435;-76
2022/07/13 00:56:59;;;;;;;4.27;1.80;;;18.40;1.00;;;;;;5075903;28;20408;-75
2022/07/13 00:59:25;;;;;;;2.00;1.80;;;18.50;1.00;;;;;;5063349;28;20401;-75
2022/07/13 01:01:58;;;;;;;6.10;1.90;;;18.50;1.00;;;;;;5068029;28;20431;-75
2022/07/13 01:04:27;;;;;;;8.73;2.00;;;18.50;1.00;;;;;;5062346;28;20431;-75
2022/07/13 01:06:54;;;;;;;18.73;1.90;;;18.50;1.00;;;;;;5075512;28;20412;-75
2022/07/13 01:09:33;;;;;;;5.07;1.90;;;18.60;1.00;;;;;;5076258;28;20419;-80
2022/07/13 01:12:20;;;;;;;3.23;1.50;;;18.60;1.00;;;;;;5073835;28;20828;-81
2022/07/13 01:15:05;;;;;;;1.80;1.70;;;18.60;1.00;;;;;;5061900;28;20438;-81
2022/07/13 01:17:45;;;;;;;2.27;1.70;;;18.60;1.00;;;;;;5075332;28;20438;-81
2022/07/13 01:20:27;;;;;;;5.17;1.83;;;18.60;1.00;;;;;;5075245;28;20537;-81
2022/07/13 01:23:03;;;;;;;2.90;1.40;;;18.60;1.00;;;;;;5072049;28;20451;-81
2022/07/13 01:25:33;;;;;;;1.70;1.50;;;18.50;1.00;;;;;;5059802;28;20418;-80
2022/07/13 01:28:11;;;;;;;2.30;1.70;;;18.60;1.00;;;;;;5060397;28;20428;-81
2022/07/13 01:30:37;;;;;;;2.07;1.70;;;18.60;1.00;;;;;;5074922;28;20406;-81
2022/07/13 01:33:15;;;;;;;3.27;1.80;;;18.60;1.00;;;;;;5075198;28;20457;-81
2022/07/13 01:35:41;;;;;;;5.83;2.00;;;18.60;1.00;;;;;;5059881;28;20571;-80
2022/07/13 01:38:26;;;;;;;2.50;1.63;;;18.50;1.00;;;;;;5055187;28;20402;-81
2022/07/13 01:40:57;;;;;;;2.60;1.70;;;18.50;1.00;;;;;;5067671;28;20547;-81
2022/07/13 01:43:57;;;;;;;2.30;2.10;;;18.50;1.00;;;;;;5062946;28;20457;-81
2022/07/13 01:46:39;;;;;;;9.00;2.00;;;18.40;1.00;;;;;;5082799;28;20440;-80
2022/07/13 01:49:21;;;;;;;2.20;2.00;;;18.30;1.00;;;;;;5062432;28;20914;-81
2022/07/13 01:52:03;;;;;;;5.00;1.77;;;18.30;1.00;;;;;;5058916;28;20523;-81
2022/07/13 01:54:50;;;;;;;3.90;2.00;;;18.30;1.00;;;;;;5056425;28;20951;-80
2022/07/13 01:57:21;;;;;;;2.20;2.00;;;18.20;1.00;;;;;;5062915;28;20416;-75
2022/07/13 01:59:46;;;;;;;7.50;2.00;;;18.20;1.00;;;;;;5061418;28;20443;-75
2022/07/13 02:02:15;;;;;;;1.80;1.70;;;18.20;1.00;;;;;;5073131;28;20466;-74
2022/07/13 02:04:40;;;;;;;8.67;2.30;;;18.20;1.00;;;;;;5074580;28;20284;-75
2022/07/13 02:07:06;;;;;;;6.63;2.10;;;18.10;1.00;;;;;;5074459;28;20491;-75
2022/07/13 02:09:32;;;;;;;4.00;2.30;;;18.10;1.00;;;;;;5071509;28;20185;-74
2022/07/13 02:12:09;;;;;;;2.80;2.40;;;18.10;1.00;;;;;;5065831;28;20185;-81
2022/07/13 02:14:39;;;;;;;4.97;2.37;;;18.10;1.00;;;;;;5073866;28;20213;-81
2022/07/13 02:17:50;;;;;;;3.23;2.33;;;18.00;1.00;;;;;;5074463;28;20396;-81
2022/07/13 02:20:27;;;;;;;2.40;1.80;;;18.00;1.00;;;;;;5073660;28;20390;-81
2022/07/13 02:23:03;;;;;;;2.30;2.10;;;17.90;1.00;;;;;;5056913;28;20904;-81
2022/07/13 02:26:08;;;;;;;2.10;1.90;;;17.90;1.00;;;;;;5072038;28;20794;-80
2022/07/13 02:28:45;;;;;;;5.57;1.97;;;17.80;1.00;;;;;;5063503;28;20390;-81
2022/07/13 02:31:27;;;;;;;2.60;1.90;;;17.70;1.00;;;;;;5069762;28;20870;-81
2022/07/13 02:33:57;;;;;;;5.73;2.00;;;17.60;1.00;;;;;;5066980;28;20423;-81
2022/07/13 02:36:27;;;;;;;2.60;2.23;;;17.60;1.00;;;;;;5060941;28;20885;-81
2022/07/13 02:38:57;;;;;;;2.70;2.30;;;17.40;1.00;;;;;;5065484;28;20752;-81
2022/07/13 02:41:33;;;;;;;4.77;2.40;;;17.40;1.00;;;;;;5060467;28;20427;-81
2022/07/13 02:44:03;;;;;;;2.00;1.90;;;17.40;1.00;;;;;;5059866;28;20414;-81
2022/07/13 02:46:33;;;;;;;2.77;2.27;;;17.30;1.00;;;;;;5061012;28;20427;-81
2022/07/13 02:49:15;;;;;;;2.50;2.17;;;17.30;1.00;;;;;;5072211;28;20560;-81
2022/07/13 02:51:40;;;;;;;3.17;2.27;;;17.30;1.00;;;;;;5060438;28;20451;-81
2022/07/13 02:54:16;;;;;;;5.33;2.67;;;17.30;1.00;;;;;;5073405;28;20927;-81
2022/07/13 02:56:57;;;;;;;3.70;2.40;;;17.30;1.00;;;;;;5067240;28;20184;-80
2022/07/13 02:59:30;;;;;;;5.07;2.47;;;17.20;1.00;;;;;;5064900;28;20406;-81
2022/07/13 03:02:04;;;;;;;2.53;2.33;;;17.20;1.00;;;;;;5060510;28;20394;-81
2022/07/13 03:04:57;;;;;;;4.80;2.20;;;17.20;1.00;;;;;;5072682;28;20775;-81
2022/07/13 03:07:39;;;;;;;10.40;2.33;;;17.20;1.00;;;;;;5062065;28;20446;-81
2022/07/13 03:10:05;;;;;;;3.33;2.40;;;17.20;1.00;;;;;;5072253;28;20450;-81
2022/07/13 03:12:33;;;;;;;3.00;2.27;;;17.20;1.00;;;;;;5073719;28;20449;-80
2022/07/13 03:15:32;;;;;;;8.03;2.40;;;17.20;1.00;;;;;;5065360;28;20954;-81
2022/07/13 03:18:03;;;;;;;2.47;2.27;;;17.20;1.00;;;;;;5057727;28;20412;-81
2022/07/13 03:23:57;;;;;;;2.87;2.40;;;17.20;1.00;;;;;;5065867;28;20402;-80
2022/07/13 03:26:24;;;;;;;3.47;2.27;;;17.20;1.00;;;;;;5061506;28;20722;-75
2022/07/13 03:28:50;;;;;;;4.00;2.00;;;17.30;1.00;;;;;;5071845;28;20445;-75
2022/07/13 03:31:17;;;;;;;3.30;2.00;;;17.20;1.00;;;;;;5061228;28;20402;-75
2022/07/13 03:33:45;;;;;;;3.10;1.93;;;17.30;1.00;;;;;;5069726;28;20426;-75
2022/07/13 03:36:11;;;;;;;2.40;2.20;;;17.20;1.00;;;;;;5073137;28;20466;-75
2022/07/13 03:38:37;;;;;;;2.80;1.80;;;17.20;1.00;;;;;;5069623;28;20426;-75
2022/07/13 03:41:03;;;;;;;2.50;2.20;;;17.20;1.00;;;;;;5064179;28;20177;-81
2022/07/13 03:43:50;;;;;;;10.37;2.47;;;17.30;1.00;;;;;;5064490;28;20433;-81
2022/07/13 03:46:45;;;;;;;4.03;2.50;;;17.30;1.00;;;;;;5060754;28;20427;-81
2022/07/13 03:49:32;;;;;;;4.10;2.30;;;17.40;1.00;;;;;;5070216;28;20497;-81
2022/07/13 03:52:09;;;;;;;11.47;4.27;;;17.40;1.00;;;;;;5059514;28;20426;-82
2022/07/13 03:54:45;;;;;;;9.20;2.90;;;17.40;1.00;;;;;;5063246;28;20957;-81
2022/07/13 03:57:10;;;;;;;7.90;2.30;;;17.50;1.00;;;;;;5060700;28;20439;-75
2022/07/13 03:59:36;;;;;;;8.47;2.93;;;17.60;1.00;;;;;;5058723;28;20466;-75
2022/07/13 04:02:03;;;;;;;12.00;3.07;;;17.60;1.00;;;;;;5060346;28;20177;-75
2022/07/13 04:04:39;;;;;;;2.40;2.20;;;17.60;1.00;;;;;;5071782;28;20274;-75
2022/07/13 04:07:04;;;;;;;2.43;2.23;;;17.70;1.00;;;;;;5056892;28;20423;-75
2022/07/13 04:09:30;;;;;;;2.77;2.30;;;17.80;1.00;;;;;;5071609;28;20787;-75
2022/07/13 04:11:56;;;;;;;3.63;2.00;;;17.90;1.00;;;;;;5072867;28;20641;-75
2022/07/13 04:14:27;;;;;;;2.60;2.37;;;17.90;1.00;;;;;;5057760;28;20288;-75
2022/07/13 04:16:57;;;;;;;2.40;2.17;;;18.00;1.00;;;;;;5059726;28;20238;-75
2022/07/13 04:19:27;;;;;;;4.00;2.07;;;18.00;1.00;;;;;;5070255;28;20958;-76
2022/07/13 04:21:52;;;;;;;2.33;2.10;;;18.10;1.00;;;;;;5061183;28;20427;-75
2022/07/13 04:24:18;;;;;;;3.70;2.23;;;18.20;1.00;;;;;;5072627;28;20447;-75
2022/07/13 04:26:44;;;;;;;6.57;2.40;;;18.20;1.00;;;;;;5068039;28;20189;-75
2022/07/13 04:29:09;;;;;;;5.70;1.80;;;18.30;1.00;;;;;;5073239;28;20179;-75
2022/07/13 04:31:35;;;;;;;2.87;2.40;;;18.40;1.00;;;;;;5064456;28;20185;-75
2022/07/13 04:34:01;;;;;;;3.67;2.03;;;18.40;1.00;;;;;;5075032;28;20204;-75
2022/07/13 04:36:26;;;;;;;2.70;1.93;;;18.40;1.00;;;;;;5064014;28;20268;-75
2022/07/13 04:38:57;;;;;;;3.00;1.83;;;18.50;1.00;;;;;;5075244;28;20555;-75
2022/07/13 04:41:22;;;;;;;4.40;2.00;;;18.50;1.00;;;;;;5071784;28;20198;-75
2022/07/13 04:43:50;;;;;;;2.03;1.93;;;18.60;1.00;;;;;;5076168;28;20612;-75
2022/07/13 04:46:27;;;;;;;3.07;2.03;;;18.70;1.00;;;;;;5075936;28;20247;-75
2022/07/13 04:49:03;;;;;;;8.33;2.00;;;18.80;1.00;;;;;;5076041;28;20420;-75
2022/07/13 04:51:29;;;;;;;3.30;2.10;;;18.90;1.00;;;;;;5067056;28;20824;-75
2022/07/13 04:53:54;;;;;;;4.50;2.07;;;19.00;1.00;;;;;;5075992;28;20499;-75
2022/07/13 04:56:27;;;;;;;4.23;2.33;;;19.10;1.00;;;;;;5075742;28;20202;-75
2022/07/13 04:58:53;;;;;;;4.53;2.00;;;19.10;1.00;;;;;;5072149;28;20185;-75
2022/07/13 05:01:18;;;;;;;2.80;2.03;;;19.20;1.00;;;;;;5073072;28;20432;-75
2022/07/13 05:03:52;;;;;;;1.90;1.80;;;19.30;1.00;;;;;;5075628;28;20184;-75
2022/07/13 05:06:18;;;;;;;2.70;2.10;;;19.40;1.00;;;;;;5075428;28;20170;-76
2022/07/13 05:08:43;;;;;;;5.23;2.47;;;19.50;1.00;;;;;;5074362;28;20896;-77
2022/07/13 05:11:10;;;;;;;2.27;2.07;;;;;;;;;;5072863;28;20194;-80
2022/07/13 05:13:36;;;;;;;5.30;2.27;;;19.70;1.00;;;;;;5066279;28;20217;-81
2022/07/13 05:16:15;;;;;;;3.37;1.87;;;19.90;1.00;;;;;;5068901;28;20944;-79
2022/07/13 05:18:40;;;;;;;3.57;2.40;;;20.00;1.00;;;;;;5066037;28;20638;-79
2022/07/13 05:21:08;;;;;;;13.73;2.17;;;20.20;1.00;;;;;;5072657;28;20498;-80
2022/07/13 05:23:38;;;;;;;2.23;2.03;;;20.40;1.00;;;;;;5074469;28;20195;-80
2022/07/13 05:26:08;;;;;;;2.97;2.13;;;20.60;1.00;;;;;;5069027;28;20479;-80
2022/07/13 05:28:34;;;;;;;2.20;1.97;;;20.80;1.00;;;;;;5055339;28;20422;-80
2022/07/13 05:30:59;;;;;;;15.33;2.27;;;21.00;1.00;;;;;;5066266;28;20424;-79
2022/07/13 05:33:25;;;;;;;11.83;2.33;;;21.00;1.00;;;;;;5065576;28;20276;-80
2022/07/13 05:35:50;;;;;;;2.50;2.17;;;21.10;1.00;;;;;;5068947;28;20635;-80
2022/07/13 05:38:16;;;;;;;8.07;2.57;;;21.20;1.00;;;;;;5074092;28;20179;-80
2022/07/13 05:40:42;;;;;;;3.80;1.90;;;21.30;1.00;;;;;;5070828;28;20178;-80
2022/07/13 05:43:08;;;;;;;4.17;2.40;;;21.40;1.00;;;;;;5071100;28;20199;-79
2022/07/13 05:45:33;;;;;;;3.93;2.00;;;21.40;1.00;;;;;;5069361;28;20194;-79
2022/07/13 05:47:59;;;;;;;7.00;2.10;;;21.50;1.00;;;;;;5054571;28;20230;-80
2022/07/13 05:50:25;;;;;;;8.30;1.97;;;21.60;1.00;;;;;;5068274;28;20180;-79
2022/07/13 05:52:51;;;;;;;4.80;2.20;;;21.70;1.00;;;;;;5068120;28;20226;-80
2022/07/13 05:55:21;;;;;;;4.47;2.27;;;21.80;1.00;;;;;;5072489;28;20462;-80
2022/07/13 05:57:48;;;;;;;4.43;2.20;;;22.00;1.00;;;;;;5062412;28;20431;-89
2022/07/13 06:00:14;;;;;;;10.80;2.20;;;22.10;1.00;;;;;;5049073;28;20855;-90
2022/07/13 06:02:43;;;;;;;4.43;2.10;;;22.30;1.00;;;;;;5070083;28;20433;-90
2022/07/13 06:05:09;;;;;;;3.23;2.27;;;22.50;1.00;;;;;;5063583;28;20208;-90
2022/07/13 06:07:35;;;;;;;6.00;1.83;;;22.60;1.00;;;;;;5085839;28;20408;-90
2022/07/13 06:10:01;;;;;;;4.50;2.60;;;22.80;1.00;;;;;;5074782;28;20410;-90
2022/07/13 06:12:29;;;;;;;3.10;2.30;;;22.90;1.00;;;;;;5074328;28;20524;-89
2022/07/13 06:14:55;;;;;;;5.73;2.27;;;22.90;1.00;;;;;;5054168;28;20221;-89
2022/07/13 06:17:21;;;;;;;8.90;2.30;;;23.10;1.00;;;;;;5064142;28;20422;-90
2022/07/13 06:19:48;;;;;;;2.90;2.17;;;23.20;1.00;;;;;;5075647;28;20183;-89
2022/07/13 06:22:39;;;;;;;9.60;2.03;;;23.40;1.00;;;;;;5072030;28;20418;-90
2022/07/13 06:25:05;;;;;;;11.03;2.00;;;23.50;1.00;;;;;;5072840;28;20413;-90
2022/07/13 06:27:33;;;;;;;6.50;1.80;;;23.70;1.00;;;;;;5071304;28;20404;-89
2022/07/13 06:30:15;;;;;;;3.77;1.80;;;24.00;1.00;;;;;;5054624;28;20416;-89
2022/07/13 06:42:47;;;;;;;6.30;1.63;;;24.30;1.00;;;;;;5054675;28;20419;-90
2022/07/13 06:52:03;;;;;;;5.63;2.20;;;24.50;1.00;;;;;;5071047;28;20477;-76
2022/07/13 06:55:08;;;;;;;17.03;1.90;;;24.70;1.00;;;;;;5073624;28;20464;-82
2022/07/13 06:57:51;;;;;;;10.20;1.60;;;25.10;1.00;;;;;;5065042;28;20467;-82
2022/07/13 07:00:17;;;;;;;8.70;1.90;;;25.10;1.00;;;;;;5059363;28;20798;-89
2022/07/13 07:06:15;;;;;;;5.33;2.10;;;25.30;1.00;;;;;;5067513;28;21156;-89
2022/07/13 07:09:09;;;;;;;7.70;1.60;;;25.50;1.00;;;;;;5073534;28;20425;-89
2022/07/13 07:11:51;;;;;;;12.83;2.23;;;25.70;1.00;;;;;;5073093;28;20472;-89
2022/07/13 07:14:33;;;;;;;10.83;2.37;;;25.90;1.00;;;;;;5072221;28;20554;-81
2022/07/13 07:17:09;;;;;;;1.73;1.40;;;25.90;1.00;;;;;;5073137;28;20464;-81
2022/07/13 07:19:39;;;;;;;11.00;2.27;;;26.00;1.00;;;;;;5060263;28;20462;-81
2022/07/13 07:22:39;;;;;;;4.53;2.17;;;26.20;1.00;;;;;;5071642;28;20957;-81
2022/07/13 07:25:07;;;;;;;23.97;3.70;;;26.40;1.00;;;;;;5072728;28;20498;-81
2022/07/13 07:27:57;;;;;;;6.37;2.30;;;26.50;1.00;;;;;;5073343;28;20455;-81
2022/07/13 07:30:22;;;;;;;5.23;2.17;;;26.50;1.00;;;;;;5059327;28;20773;-81
2022/07/13 07:33:03;;;;;;;3.40;1.93;;;26.70;1.00;;;;;;5072776;28;20479;-79
2022/07/13 07:35:29;;;;;;;3.23;1.90;;;27.00;1.00;;;;;;5059529;28;20245;-78
2022/07/13 07:38:03;;;;;;;7.07;2.30;;;27.20;1.00;;;;;;5073036;28;20768;-78
2022/07/13 07:41:03;;;;;;;2.17;1.97;;;27.10;1.00;;;;;;5070975;28;20161;-78
2022/07/13 07:43:28;;;;;;;4.43;2.20;;;27.30;1.00;;;;;;5069155;28;20494;-78
2022/07/13 07:45:57;;;;;;;3.87;2.40;;;27.50;1.00;;;;;;5069265;28;20519;-78
2022/07/13 07:48:39;;;;;;;6.63;2.07;;;27.80;1.00;;;;;;5071340;28;20165;-78
2022/07/13 07:51:05;;;;;;;2.00;1.70;;;27.70;1.00;;;;;;5055479;28;20426;-78
2022/07/13 07:53:31;;;;;;;4.10;1.70;;;27.80;1.00;;;;;;5072723;28;20429;-78
2022/07/13 07:55:58;;;;;;;3.03;1.90;;;28.00;1.00;;;;;;5063525;28;20467;-79
2022/07/13 07:58:33;;;;;;;7.70;1.80;;;28.30;1.00;;;;;;5073194;28;20486;-78
2022/07/13 08:01:03;;;;;;;8.60;2.20;;;28.40;1.00;;;;;;5072782;28;20950;-78
2022/07/13 08:03:33;;;;;;;8.20;1.70;;;28.50;1.00;;;;;;5073786;28;20448;-78
2022/07/13 08:06:21;;;;;;;5.33;1.80;;;28.90;1.00;;;;;;5064137;28;20923;-78
2022/07/13 08:09:03;;;;;;;7.07;2.10;;;29.10;1.00;;;;;;5061427;28;20432;-78
2022/07/13 08:11:33;;;;;;;4.03;2.00;;;29.00;1.00;;;;;;5069555;28;20470;-78
2022/07/13 08:13:59;;;;;;;3.63;1.80;;;29.00;1.00;;;;;;5058037;28;20787;-78
2022/07/13 08:16:25;;;;;;;5.43;2.00;;;29.10;1.00;;;;;;5072581;28;20512;-78
2022/07/13 08:18:51;;;;;;;4.40;1.70;;;29.00;1.00;;;;;;5072173;28;20455;-78
2022/07/13 08:21:27;;;;;;;6.67;1.53;;;28.80;1.00;;;;;;5065783;28;20174;-78
2022/07/13 08:23:53;;;;;;;4.07;2.20;;;28.90;1.00;;;;;;5064663;28;20411;-79
2022/07/13 08:26:45;;;;;;;3.23;1.50;;;28.90;1.00;;;;;;5076163;28;20451;-78
2022/07/13 08:29:13;;;;;;;1.60;1.50;;;29.10;1.00;;;;;;5059659;28;20470;-78
2022/07/13 08:31:39;;;;;;;4.10;1.73;;;29.20;1.00;;;;;;5067284;28;20767;-78
2022/07/13 08:40:33;;;;;;;3.03;1.40;;;29.50;1.00;;;;;;5075146;28;20447;-78
2022/07/13 08:43:04;;;;;;;7.07;2.10;;;29.70;1.00;;;;;;5065477;28;20942;-78
2022/07/13 08:45:33;;;;;;;8.43;1.87;;;30.00;1.00;;;;;;5063178;28;20513;-78
2022/07/13 08:48:00;;;;;;;3.30;1.77;;;30.20;1.00;;;;;;5076149;28;20409;-79
2022/07/13 08:50:31;;;;;;;6.47;1.77;;;30.40;1.00;;;;;;5070364;28;20425;-78
2022/07/13 08:53:15;;;;;;;7.73;1.37;;;30.00;1.00;;;;;;5056864;28;20781;-89
2022/07/13 08:55:42;;;;;;;5.13;1.50;;;30.30;1.00;;;;;;5058937;28;20450;-80
2022/07/13 08:58:27;;;;;;;3.90;1.40;;;30.30;1.00;;;;;;5071186;28;20389;-80
2022/07/13 09:00:53;;;;;;;3.90;1.20;;;30.30;1.00;;;;;;5075693;28;20904;-81
2022/07/13 09:03:18;;;;;;;2.13;1.50;;;30.60;1.00;;;;;;5057395;28;20409;-80
2022/07/13 09:05:51;;;;;;;6.00;1.70;;;30.80;1.00;;;;;;5054415;28;20422;-80
2022/07/13 09:11:45;;;;;;;1.60;1.50;;;30.80;1.00;;;;;;5066405;28;20948;-82
2022/07/13 09:14:22;;;;;;;5.13;1.27;;;30.80;1.00;;;;;;5069584;28;20461;-80
2022/07/13 09:17:18;;;;;;;2.70;1.40;;;30.60;1.00;;;;;;5054912;28;20992;-80
2022/07/13 09:20:39;;;;;;;1.33;1.23;;;30.50;1.00;;;;;;5061929;28;20413;-79
2022/07/13 09:23:39;;;;;;;6.30;1.30;;;30.30;1.00;;;;;;5061494;28;20402;-79
2022/07/13 09:26:53;;;;;;;5.23;1.60;;;30.10;1.00;;;;;;5067873;28;20515;-79
2022/07/13 09:29:22;;;;;;;3.43;1.17;;;30.20;1.00;;;;;;4992576;28;20628;-80
2022/07/13 09:32:21;;;;;;;7.00;1.47;;;30.40;1.00;;;;;;4993880;28;20423;-81
2022/07/13 09:35:05;;;;;;;19.33;1.67;;;30.30;1.00;;;;;;4983968;28;20456;-80
2022/07/13 09:37:31;;;;;;;6.93;1.30;;;30.30;1.00;;;;;;4993791;28;20433;-80
2022/07/13 09:40:06;;;;;;;10.60;1.17;;;30.60;1.00;;;;;;4980878;28;20613;-80
2022/07/13 09:42:38;;;;;;;10.10;1.40;;;30.60;1.00;;;;;;4965158;28;20432;-81
2022/07/13 09:48:39;;;;;;;1.40;1.10;;;30.90;1.00;;;;;;4935234;29;20416;-79
2022/07/13 09:51:10;;;;;;;7.00;1.37;;;30.90;1.00;;;;;;4931675;29;20424;-80
2022/07/13 09:53:37;;;;;;;3.00;1.40;;;31.30;1.00;;;;;;4929289;29;21136;-80
2022/07/13 09:56:06;;;;;;;1.33;0.90;;;31.50;1.00;;;;;;4926788;29;20471;-80
2022/07/13 09:58:45;;;;;;;2.97;1.27;;;31.30;1.00;;;;;;4931630;29;20518;-79
2022/07/13 10:01:11;;;;;;;10.23;1.10;;;31.50;1.00;;;;;;4923330;29;20504;-80
2022/07/13 10:03:45;;;;;;;7.33;1.30;;;31.60;1.00;;;;;;4931544;29;20489;-79
2022/07/13 10:06:13;;;;;;;27.57;2.13;;;31.70;1.00;;;;;;4969563;28;20425;-79
2022/07/13 10:09:03;;;;;;;23.97;1.63;;;31.80;1.00;;;;;;4976651;28;20439;-79
2022/07/13 10:11:29;;;;;;;3.27;1.17;;;31.90;1.00;;;;;;4992712;28;20933;-79
2022/07/13 10:14:09;;;;;;;4.80;1.40;;;32.10;1.00;;;;;;4984982;28;20457;-79
2022/07/13 10:17:07;;;;;;;2.73;1.33;;;32.20;1.00;;;;;;4993218;28;20471;-81
2022/07/13 10:19:47;;;;;;;1.20;1.10;;;32.30;1.00;;;;;;5045103;28;20409;-81
2022/07/13 10:22:25;;;;;;;5.83;1.30;;;32.50;1.00;;;;;;5061814;28;20493;-82
2022/07/13 10:24:52;;;;;;;1.90;1.10;;;32.70;1.00;;;;;;5068133;28;20694;-81
2022/07/13 10:27:22;;;;;;;1.00;0.90;;;32.80;1.00;;;;;;5067931;28;20482;-80
2022/07/13 10:29:55;;;;;;;2.00;1.00;;;32.80;1.00;;;;;;5071899;28;20435;-80
2022/07/13 10:32:26;;;;;;;1.20;1.10;;;32.90;1.00;;;;;;5065682;28;20444;-80
2022/07/13 10:35:09;;;;;;;1.20;1.20;;;32.90;1.00;;;;;;5058092;28;20457;-80
2022/07/13 10:37:58;;;;;;;3.10;1.20;;;32.90;1.00;;;;;;5060573;28;20444;-86
2022/07/13 10:40:26;;;;;;;6.13;1.00;;;32.90;1.00;;;;;;5063506;28;20429;-81
2022/07/13 10:42:54;;;;;;;1.80;0.90;;;32.90;1.00;;;;;;5067735;28;20424;-81
2022/07/13 10:45:32;;;;;;;1.23;0.80;;;32.90;1.00;;;;;;5062161;28;20434;-81
2022/07/13 10:48:34;;;;;;;3.90;1.00;;;32.80;1.00;;;;;;5061156;28;20424;-81
2022/07/13 10:51:17;;;;;;;11.40;1.00;;;32.80;1.00;;;;;;5071471;28;20486;-81
2022/07/13 10:53:52;;;;;;;2.90;0.93;;;32.60;1.00;;;;;;5066194;28;20504;-80
2022/07/13 10:57:10;;;;;;;2.97;0.90;;;32.60;1.00;;;;;;5075160;28;20484;-80
2022/07/13 10:59:49;;;;;;;1.53;0.90;;;32.50;1.00;;;;;;5061088;28;20867;-81
2022/07/13 11:03:01;;;;;;;1.10;1.00;;;32.50;1.00;;;;;;5060459;28;20406;-79
2022/07/13 11:05:33;;;;;;;7.53;1.00;;;32.30;1.00;;;;;;5011636;28;20431;-79
2022/07/13 11:08:16;;;;;;;0.87;0.83;;;32.40;1.00;;;;;;5011212;28;20428;-79
2022/07/13 11:10:42;;;;;;;9.27;1.10;;;32.50;1.00;;;;;;4981967;28;20428;-79
2022/07/13 11:13:12;;;;;;;3.03;0.93;;;32.40;1.00;;;;;;4994960;28;20452;-79
2022/07/13 11:15:57;;;;;;;2.60;0.80;;;32.60;1.00;;;;;;4989343;28;20487;-79
2022/07/13 11:18:52;;;;;;;1.17;0.80;;;32.70;1.00;;;;;;4990393;28;20420;-80
2022/07/13 11:21:23;;;;;;;2.40;0.87;;;32.80;1.00;;;;;;5011351;28;20443;-80
2022/07/13 11:26:59;;;;;;;0.70;0.70;;;32.90;1.00;;;;;;5001960;28;20462;-79
2022/07/13 11:29:37;;;;;;;4.07;0.70;;;33.00;1.00;;;;;;5009272;28;20435;-79
2022/07/13 11:32:05;;;;;;;0.83;0.83;;;32.70;1.00;;;;;;5006900;28;20772;-79
2022/07/13 11:34:35;;;;;;;5.50;0.80;;;32.60;1.00;;;;;;5011355;28;20431;-80
2022/07/13 11:37:02;;;;;;;2.57;0.87;;;32.30;1.00;;;;;;5011261;28;20882;-79
2022/07/13 11:39:35;;;;;;;6.63;0.90;;;32.50;1.00;;;;;;5002802;28;20419;-79
2022/07/13 11:42:09;;;;;;;1.80;1.00;;;32.80;1.00;;;;;;5026453;28;20448;-79
2022/07/13 11:44:49;;;;;;;2.80;0.80;;;32.80;1.00;;;;;;5073019;28;20417;-79
2022/07/13 11:47:15;;;;;;;3.13;0.70;;;33.20;1.00;;;;;;5070726;28;20470;-75
2022/07/13 11:49:43;;;;;;;0.87;0.87;;;33.30;1.00;;;;;;5072802;28;20421;-75
2022/07/13 11:52:24;;;;;;;3.90;0.70;;;33.00;1.00;;;;;;5073067;28;20618;-75
2022/07/13 11:54:56;;;;;;;6.53;0.90;;;32.90;1.00;;;;;;5072549;28;20421;-75
2022/07/13 11:57:22;;;;;;;1.67;0.83;;;32.90;1.00;;;;;;5072502;28;20412;-75
2022/07/13 11:59:48;;;;;;;1.93;0.93;;;32.80;1.00;;;;;;5072442;28;20413;-75
2022/07/13 12:02:15;;;;;;;2.90;1.00;;;32.80;1.00;;;;;;5064517;28;20215;-75
2022/07/13 12:04:48;;;;;;;4.10;1.10;;;32.80;1.00;;;;;;5056693;28;20167;-75
2022/07/13 12:07:23;;;;;;;1.07;0.90;;;32.90;1.00;;;;;;5072017;28;20459;-75
2022/07/13 12:09:51;;;;;;;2.30;0.90;;;32.70;1.00;;;;;;5070792;28;20813;-75
2022/07/13 12:12:19;;;;;;;2.60;1.00;;;32.70;1.00;;;;;;5072313;28;20516;-75
2022/07/13 12:14:45;;;;;;;6.83;0.93;;;32.60;1.00;;;;;;5071851;28;20440;-75
2022/07/13 12:17:11;;;;;;;4.00;0.83;;;32.70;1.00;;;;;;5071219;28;20409;-75
2022/07/13 12:19:37;;;;;;;3.43;0.93;;;32.60;1.00;;;;;;5067819;28;20777;-75
2022/07/13 12:22:07;;;;;;;4.30;1.30;;;32.70;1.00;;;;;;5067081;28;20248;-76
2022/07/13 12:24:33;;;;;;;4.20;0.90;;;33.00;1.00;;;;;;5057295;28;20419;-75
2022/07/13 12:26:59;;;;;;;3.33;1.30;;;32.90;1.00;;;;;;5067319;28;20405;-75
2022/07/13 12:29:27;;;;;;;3.50;0.90;;;33.10;1.00;;;;;;5054000;28;20437;-75
2022/07/13 12:31:52;;;;;;;4.13;0.80;;;33.30;1.00;;;;;;5053033;28;20416;-76
2022/07/13 12:34:20;;;;;;;0.80;0.80;;;33.50;1.00;;;;;;5052642;28;20440;-75
2022/07/13 12:36:50;;;;;;;2.40;0.93;;;33.60;1.00;;;;;;5074968;28;20890;-75
2022/07/13 12:39:32;;;;;;;0.80;0.80;;;33.60;1.00;;;;;;5057615;28;20991;-75
2022/07/13 12:41:58;;;;;;;1.10;1.00;;;33.70;1.00;;;;;;5070823;28;20417;-75
2022/07/13 12:44:29;;;;;;;1.00;0.90;;;33.90;1.00;;;;;;5052508;28;20413;-75
2022/07/13 12:46:58;;;;;;;1.67;1.10;;;34.00;1.00;;;;;;5053672;28;20182;-79
2022/07/13 12:49:37;;;;;;;2.10;0.90;;;34.10;1.00;;;;;;5061950;28;20480;-80
2022/07/13 12:52:11;;;;;;;0.90;0.70;;;34.20;1.00;;;;;;5068737;28;20460;-80
2022/07/13 12:54:51;;;;;;;1.13;0.77;;;34.40;1.00;;;;;;5070056;28;20403;-80
2022/07/13 12:57:22;;;;;;;7.70;1.00;;;34.20;1.00;;;;;;5058787;28;20417;-80
2022/07/13 13:00:07;;;;;;;0.83;0.80;;;34.10;1.00;;;;;;5070833;28;20398;-80
2022/07/13 13:02:34;;;;;;;7.13;1.00;;;34.40;1.00;;;;;;5064673;28;20765;-80
2022/07/13 13:05:01;;;;;;;5.83;0.87;;;34.60;1.00;;;;;;5059794;28;20417;-80
2022/07/13 13:07:27;;;;;;;2.50;0.80;;;35.00;1.00;;;;;;5075288;28;20443;-80
2022/07/13 13:09:52;;;;;;;1.20;0.80;;;35.30;1.00;;;;;;5062077;28;20406;-80
2022/07/13 13:12:18;;;;;;;0.90;0.80;;;35.10;1.00;;;;;;5075102;28;20270;-79
2022/07/13 13:14:44;;;;;;;7.30;0.90;;;35.10;1.00;;;;;;5074620;28;20191;-80
2022/07/13 13:17:10;;;;;;;5.63;0.87;;;35.10;1.00;;;;;;5061004;28;20176;-80
2022/07/13 13:19:37;;;;;;;1.60;1.00;;;35.30;1.00;;;;;;5062848;28;20171;-80
2022/07/13 13:22:04;;;;;;;2.50;0.80;;;35.40;1.00;;;;;;5061998;28;20402;-80
2022/07/13 13:24:33;;;;;;;1.90;0.70;;;35.60;1.00;;;;;;5075120;28;21095;-80
2022/07/13 13:26:59;;;;;;;2.50;0.80;;;35.40;1.00;;;;;;5075153;28;20436;-80
2022/07/13 13:32:15;;;;;;;12.07;0.83;;;35.60;1.00;;;;;;5052825;28;20245;-80
2022/07/13 13:34:42;;;;;;;1.17;0.70;;;35.70;1.00;;;;;;5052415;28;20426;-80
2022/07/13 13:37:08;;;;;;;2.00;0.70;;;35.60;1.00;;;;;;5052824;28;20415;-81
2022/07/13 13:39:57;;;;;;;0.73;0.73;;;35.60;1.00;;;;;;5052792;28;20421;-80
2022/07/13 13:42:45;;;;;;;0.60;0.60;;;36.00;1.00;;;;;;5041564;28;20952;-80
2022/07/13 13:45:15;;;;;;;4.13;0.70;;;36.40;1.00;;;;;;5053090;28;20422;-80
2022/07/13 13:47:45;;;;;;;4.30;0.80;;;36.40;1.00;;;;;;5053018;28;20414;-80
2022/07/13 13:50:11;;;;;;;0.63;0.60;;;36.50;1.00;;;;;;5052936;28;20979;-80
2022/07/13 13:52:37;;;;;;;2.53;0.93;;;36.70;1.00;;;;;;5052541;28;20423;-80
2022/07/13 13:55:03;;;;;;;1.40;0.70;;;36.90;1.00;;;;;;5046724;28;20211;-81
2022/07/13 13:57:29;;;;;;;3.13;0.80;;;36.70;1.00;;;;;;5044728;28;20196;-80
2022/07/13 13:59:54;;;;;;;0.80;0.60;;;36.90;1.00;;;;;;5052066;28;20413;-80
2022/07/13 14:02:21;;;;;;;3.17;0.97;;;37.00;1.00;;;;;;5047570;28;20718;-80
2022/07/13 14:04:47;;;;;;;1.10;0.80;;;36.50;1.00;;;;;;5059127;28;20230;-80
2022/07/13 14:07:13;;;;;;;0.60;0.60;;;36.50;1.00;;;;;;5052008;28;20414;-81
2022/07/13 14:09:38;;;;;;;3.17;0.80;;;36.60;1.00;;;;;;5059542;28;20655;-80